< Typhoon 198711 1987 Season Typhoon 198713 >
Typhoon 198712 (DINAH)
General InformationTrack Information on Google MapsDetailed Wind InformationList of All Images || NewsDisaster Info.ResourceGoogle EarthGE AnimationAtom FeedGeoJSON
Detalied Best Track (Time Zone = UTC)
Year Month Day Hour Lat. Long. Pressure (hPa) Wind (kt) Class Image Chart
1987 8 20 18 12.0 152.0 1006 0 2 Image Chart
1987 8 21 00 11.7 150.7 1006 0 2 Image Chart
1987 8 21 06 11.4 149.4 1006 0 2 Image Chart
1987 8 21 12 11.2 148.3 1004 0 2 Image Chart
1987 8 21 18 11.0 147.0 1002 0 2 Image Chart
1987 8 22 00 11.0 145.7 998 40 3 Image Chart
1987 8 22 06 11.0 144.5 996 40 3 Image Chart
1987 8 22 12 11.1 143.4 994 40 3 Image Chart
1987 8 22 18 11.4 141.3 990 40 3 Image Chart
1987 8 23 00 11.4 141.3 990 45 3 Image Chart
1987 8 23 06 11.8 140.4 985 45 3 Image Chart
1987 8 23 12 12.2 139.4 980 50 4 Image Chart
1987 8 23 18 12.6 138.4 975 55 4 Image Chart
1987 8 24 00 12.9 137.3 975 60 4 Image Chart
1987 8 24 06 13.4 136.1 970 65 5 Image Chart
1987 8 24 12 14.0 134.9 970 65 5 Image Chart
1987 8 24 18 14.6 133.7 965 75 5 Image Chart
1987 8 25 00 15.2 132.9 960 75 5 Image Chart
1987 8 25 06 16.0 132.0 950 80 5 Image Chart
1987 8 25 12 16.8 131.3 940 90 5 Image Chart
1987 8 25 18 17.3 130.6 930 95 5 Image Chart
1987 8 26 00 17.8 130.3 920 100 5 Image Chart
1987 8 26 06 18.5 130.1 920 100 5 Image Chart
1987 8 26 12 19.2 129.8 915 100 5 Image Chart
1987 8 26 18 19.6 129.6 915 100 5 Image Chart
1987 8 27 00 20.0 129.2 915 100 5 Image Chart
1987 8 27 06 20.3 128.8 915 100 5 Image Chart
1987 8 27 12 20.4 128.5 920 100 5 Image Chart
1987 8 27 18 20.6 128.1 925 90 5 Image Chart
1987 8 28 00 21.0 127.6 930 90 5 Image Chart
1987 8 28 06 21.2 127.2 930 90 5 Image Chart
1987 8 28 12 21.5 127.0 935 90 5 Image Chart
1987 8 28 18 22.2 126.6 935 90 5 Image Chart
1987 8 29 00 23.0 126.4 940 85 5 Image Chart
1987 8 29 06 23.9 126.2 940 85 5 Image Chart
1987 8 29 12 24.9 126.1 940 85 5 Image Chart
1987 8 29 18 26.4 126.1 940 85 5 Image Chart
1987 8 30 00 28.0 126.1 935 85 5 Image Chart
1987 8 30 06 29.8 126.6 935 85 5 Image Chart
1987 8 30 12 31.7 127.4 935 85 5 Image Chart
1987 8 30 18 34.2 128.9 945 85 5 Image Chart
1987 8 31 00 37.1 131.5 955 75 5 Image Chart
1987 8 31 06 39.5 133.3 960 75 5 Image Chart
1987 8 31 12 41.5 136.1 970 0 6 Image Chart
1987 8 31 18 43.2 138.7 976 0 6 Image Chart
1987 9 1 00 45.0 141.7 978 0 6 Image Chart
1987 9 1 06 46.5 145.0 980 0 6 Image Chart
1987 9 1 12 47.5 148.5 980 0 6 Image Chart
1987 9 1 18 48.5 152.0 980 0 6 Image Chart
1987 9 2 00 49.5 156.0 980 0 6 Image Chart
1987 9 2 06 50.5 159.5 980 0 6 Image Chart
1987 9 2 12 51.0 163.0 984 0 6 Image Chart
1987 9 2 18 50.5 166.5 988 0 6 Image Chart
1987 9 3 00 50.0 170.0 992 0 6 Image Chart
1987 9 3 06 49.7 173.0 996 0 6 Image Chart
1987 9 3 12 49.4 176.0 1000 0 6 Image Chart
1987 9 3 18 49.0 180.0 1004 0 6 Image Chart
Japan Meteorological Agency Best Track Data | Correction Date : 1992-10-21
< Typhoon 198711 1987 Season Typhoon 198713 >

Help